createdAt,value
2017-11-04T00:00:02.596Z,7.58
2017-11-04T00:01:02.538Z,7.54
2017-11-04T00:02:02.466Z,7.45
2017-11-04T00:03:02.406Z,7.54
2017-11-04T00:04:02.343Z,7.47
2017-11-04T00:05:02.288Z,7.39
2017-11-04T00:06:02.215Z,7.48
2017-11-04T00:07:02.157Z,7.48
2017-11-04T00:08:02.099Z,7.41
2017-11-04T00:09:02.039Z,7.42
2017-11-04T00:10:01.983Z,7.44
2017-11-04T00:11:01.927Z,7.42
2017-11-04T00:12:01.873Z,7.33
2017-11-04T00:13:01.834Z,7.32
2017-11-04T00:14:01.731Z,7.30
2017-11-04T00:15:01.663Z,7.36
2017-11-04T00:16:01.604Z,7.32
2017-11-04T00:17:01.546Z,7.36
2017-11-04T00:18:01.488Z,7.36
2017-11-04T00:19:01.427Z,7.39
2017-11-04T00:20:01.370Z,7.42
2017-11-04T00:21:01.326Z,7.48
2017-11-04T00:22:01.240Z,7.41
2017-11-04T00:23:01.179Z,7.47
2017-11-04T00:24:01.117Z,7.41
2017-11-04T00:25:01.056Z,7.44
2017-11-04T00:26:00.990Z,7.39
2017-11-04T00:27:00.930Z,7.45
2017-11-04T00:28:00.872Z,7.33
2017-11-04T00:29:00.824Z,7.48
2017-11-04T00:30:00.758Z,7.37
2017-11-04T00:31:00.705Z,7.32
2017-11-04T00:32:00.633Z,7.30
2017-11-04T00:33:00.563Z,7.37
2017-11-04T00:34:00.514Z,7.30
2017-11-04T00:35:00.436Z,7.36
2017-11-04T00:36:00.385Z,7.33
2017-11-04T00:37:00.353Z,7.41
2017-11-04T00:38:00.258Z,7.33
2017-11-04T00:39:00.208Z,7.33
2017-11-04T00:40:00.136Z,7.42
2017-11-04T00:41:00.093Z,7.33
2017-11-04T00:42:00.014Z,7.32
2017-11-04T00:42:59.954Z,7.23
2017-11-04T00:43:59.883Z,7.24
2017-11-04T00:44:59.832Z,7.26
2017-11-04T00:45:59.764Z,7.19
2017-11-04T00:46:59.706Z,7.15
2017-11-04T00:47:59.651Z,7.18
2017-11-04T00:48:59.596Z,7.16
2017-11-04T00:49:59.521Z,7.15
2017-11-04T00:50:59.459Z,7.09
2017-11-04T00:51:59.410Z,7.18
2017-11-04T00:52:59.340Z,7.09
2017-11-04T00:53:59.269Z,7.15
2017-11-04T00:54:59.213Z,7.14
2017-11-04T00:55:59.150Z,7.12
2017-11-04T00:56:59.092Z,7.12
2017-11-04T00:57:59.034Z,7.11
2017-11-04T00:58:58.979Z,7.00
2017-11-04T00:59:58.901Z,6.96
2017-11-04T01:00:58.847Z,6.91
2017-11-04T01:01:58.782Z,6.91
2017-11-04T01:02:58.726Z,6.91
2017-11-04T01:03:58.655Z,6.93
2017-11-04T01:04:58.609Z,6.90
2017-11-04T01:05:58.537Z,6.86
2017-11-04T01:06:58.479Z,6.86
2017-11-04T01:07:58.422Z,6.93
2017-11-04T01:08:58.354Z,6.87
2017-11-04T01:09:58.289Z,6.76
2017-11-04T01:10:58.230Z,6.86
2017-11-04T01:11:58.172Z,6.75
2017-11-04T01:12:58.112Z,6.72
2017-11-04T01:13:58.039Z,6.79
2017-11-04T01:14:57.980Z,6.81
2017-11-04T01:15:57.922Z,6.82
2017-11-04T01:16:57.865Z,6.75
2017-11-04T01:17:57.809Z,6.86
2017-11-04T01:18:57.735Z,6.76
2017-11-04T01:19:57.673Z,6.76
2017-11-04T01:20:57.607Z,6.65
2017-11-04T01:21:57.545Z,6.78
2017-11-04T01:22:57.483Z,6.75
2017-11-04T01:23:57.433Z,6.64
2017-11-04T01:24:57.365Z,6.63
2017-11-04T01:25:57.315Z,6.72
2017-11-04T01:26:57.254Z,6.58
2017-11-04T01:27:57.197Z,6.68
2017-11-04T01:28:57.120Z,6.69
2017-11-04T01:29:57.056Z,6.61
2017-11-04T01:30:56.989Z,6.63
2017-11-04T01:31:56.932Z,6.58
2017-11-04T01:32:56.869Z,6.58
2017-11-04T01:33:56.810Z,6.61
2017-11-04T01:34:56.754Z,6.60
2017-11-04T01:35:56.696Z,6.58
2017-11-04T01:36:56.641Z,6.63
2017-11-04T01:37:56.563Z,6.57
2017-11-04T01:38:56.502Z,6.57
2017-11-04T01:39:56.456Z,6.63
2017-11-04T01:40:56.372Z,6.57
2017-11-04T01:41:56.313Z,6.57
2017-11-04T01:42:56.254Z,6.57
2017-11-04T01:43:56.200Z,6.60
2017-11-04T01:44:56.143Z,6.60
2017-11-04T01:45:56.084Z,6.60
2017-11-04T01:46:56.007Z,6.61
2017-11-04T01:47:55.939Z,6.57
2017-11-04T01:48:55.882Z,6.54
2017-11-04T01:49:55.815Z,6.60
2017-11-04T01:50:55.756Z,6.55
2017-11-04T01:51:55.694Z,6.50
2017-11-04T01:52:55.637Z,6.51
2017-11-04T01:53:55.571Z,6.54
2017-11-04T01:54:55.527Z,6.50
2017-11-04T01:55:55.447Z,6.50
2017-11-04T01:56:55.390Z,6.46
2017-11-04T01:57:55.319Z,6.53
2017-11-04T01:58:55.257Z,6.48
2017-11-04T01:59:55.199Z,6.48
2017-11-04T02:00:55.139Z,6.45
2017-11-04T02:01:55.081Z,6.48
2017-11-04T02:02:55.024Z,6.50
2017-11-04T02:03:54.969Z,6.48
2017-11-04T02:04:54.917Z,6.46
2017-11-04T02:05:54.836Z,6.51
2017-11-04T02:06:54.762Z,6.43
2017-11-04T02:07:54.786Z,6.46
2017-11-04T02:08:54.640Z,6.43
2017-11-04T02:09:54.593Z,6.50
2017-11-04T02:10:54.523Z,6.51
2017-11-04T02:11:54.467Z,6.48
2017-11-04T02:12:54.413Z,6.38
2017-11-04T02:13:54.336Z,6.38
2017-11-04T02:14:54.273Z,6.46
2017-11-04T02:15:54.207Z,6.40
2017-11-04T02:16:54.156Z,6.38
2017-11-04T02:17:54.083Z,6.40
2017-11-04T02:18:54.022Z,6.40
2017-11-04T02:19:53.966Z,6.39
2017-11-04T02:20:53.910Z,6.43
2017-11-04T02:21:53.856Z,6.40
2017-11-04T02:22:53.778Z,6.42
2017-11-04T02:23:53.715Z,6.39
2017-11-04T02:24:53.646Z,6.36
2017-11-04T02:25:53.586Z,6.39
2017-11-04T02:26:53.527Z,6.35
2017-11-04T02:27:53.469Z,6.33
2017-11-04T02:28:53.409Z,6.27
2017-11-04T02:29:53.356Z,6.27
2017-11-04T02:30:53.298Z,6.30
2017-11-04T02:31:53.228Z,6.36
2017-11-04T02:32:53.156Z,6.35
2017-11-04T02:33:53.090Z,6.33
2017-11-04T02:34:53.049Z,6.32
2017-11-04T02:35:52.970Z,6.32
2017-11-04T02:36:52.910Z,6.27
2017-11-04T02:37:52.853Z,6.32
2017-11-04T02:38:52.815Z,6.33
2017-11-04T02:39:52.741Z,6.28
2017-11-04T02:40:52.795Z,6.28
2017-11-04T02:41:52.597Z,6.27
2017-11-04T02:42:52.530Z,6.33
2017-11-04T02:43:52.491Z,6.30
2017-11-04T02:44:52.412Z,6.28
2017-11-04T02:45:52.350Z,6.28
2017-11-04T02:46:52.297Z,6.32
2017-11-04T02:47:52.239Z,6.27
2017-11-04T02:48:52.228Z,6.32
2017-11-04T02:49:52.105Z,6.43
2017-11-04T02:50:52.042Z,6.32
2017-11-04T02:51:51.994Z,6.42
2017-11-04T02:52:51.914Z,6.38
2017-11-04T02:53:51.852Z,6.35
2017-11-04T02:54:51.794Z,6.46
2017-11-04T02:55:51.736Z,6.39
2017-11-04T02:56:51.682Z,6.46
2017-11-04T02:57:51.605Z,6.42
2017-11-04T02:58:51.546Z,6.55
2017-11-04T02:59:51.481Z,6.46
2017-11-04T03:00:51.415Z,6.46
2017-11-04T03:01:51.354Z,6.43
2017-11-04T03:02:51.294Z,6.48
2017-11-04T03:03:51.235Z,6.48
2017-11-04T03:04:51.179Z,6.46
2017-11-04T03:05:51.124Z,6.42
2017-11-04T03:06:51.047Z,6.48
2017-11-04T03:07:50.985Z,6.50
2017-11-04T03:08:50.931Z,6.46
2017-11-04T03:09:50.857Z,6.46
2017-11-04T03:10:50.798Z,6.46
2017-11-04T03:11:50.743Z,6.51
2017-11-04T03:12:50.678Z,6.45
2017-11-04T03:13:50.622Z,6.46
2017-11-04T03:14:50.568Z,6.53
2017-11-04T03:15:50.489Z,6.54
2017-11-04T03:16:50.428Z,6.53
2017-11-04T03:17:50.363Z,6.51
2017-11-04T03:18:50.298Z,6.51
2017-11-04T03:19:50.239Z,6.40
2017-11-04T03:20:50.179Z,6.46
2017-11-04T03:21:50.253Z,6.45
2017-11-04T03:22:50.077Z,6.36
2017-11-04T03:23:50.010Z,6.42
2017-11-04T03:24:49.933Z,6.38
2017-11-04T03:25:49.883Z,6.40
2017-11-04T03:26:49.803Z,6.42
2017-11-04T03:27:49.740Z,6.53
2017-11-04T03:28:49.681Z,6.40
2017-11-04T03:29:49.622Z,6.36
2017-11-04T03:30:49.564Z,6.45
2017-11-04T03:31:49.508Z,6.40
2017-11-04T03:32:49.453Z,6.39
2017-11-04T03:33:49.374Z,6.45
2017-11-04T03:34:49.311Z,6.38
2017-11-04T03:35:49.249Z,6.39
2017-11-04T03:36:49.195Z,6.42
2017-11-04T03:37:49.123Z,6.42
2017-11-04T03:38:49.064Z,6.42
2017-11-04T03:39:49.006Z,6.42
2017-11-04T03:40:48.951Z,6.43
2017-11-04T03:41:48.888Z,6.38
2017-11-04T03:42:48.815Z,6.46
2017-11-04T03:43:48.754Z,6.45
2017-11-04T03:44:48.684Z,6.36
2017-11-04T03:45:48.624Z,6.42
2017-11-04T03:46:48.567Z,6.42
2017-11-04T03:47:48.505Z,6.36
2017-11-04T03:48:48.469Z,6.32
2017-11-04T03:49:48.393Z,6.36
2017-11-04T03:50:48.318Z,6.36
2017-11-04T03:51:48.257Z,6.33
2017-11-04T03:52:48.192Z,6.36
2017-11-04T03:53:48.130Z,6.27
2017-11-04T03:54:48.067Z,6.43
2017-11-04T03:55:48.011Z,6.36
2017-11-04T03:56:47.945Z,6.30
2017-11-04T03:57:47.891Z,6.40
2017-11-04T03:58:47.835Z,6.36
2017-11-04T03:59:47.762Z,6.40
2017-11-04T04:00:47.698Z,6.39
2017-11-04T04:01:47.638Z,6.42
2017-11-04T04:02:47.570Z,6.38
2017-11-04T04:03:47.510Z,6.45
2017-11-04T04:04:47.449Z,6.39
2017-11-04T04:05:47.405Z,6.40
2017-11-04T04:06:47.320Z,6.36
2017-11-04T04:07:47.279Z,6.36
2017-11-04T04:08:47.212Z,6.46
2017-11-04T04:09:47.140Z,6.35
2017-11-04T04:10:47.081Z,6.39
2017-11-04T04:11:47.020Z,6.36
2017-11-04T04:12:46.951Z,6.36
2017-11-04T04:13:46.892Z,6.40
2017-11-04T04:14:46.836Z,6.39
2017-11-04T04:15:46.776Z,6.42
2017-11-04T04:16:46.706Z,6.38
2017-11-04T04:17:46.643Z,6.35
2017-11-04T04:18:46.582Z,6.40
2017-11-04T04:19:46.514Z,6.43
2017-11-04T04:20:46.452Z,6.48
2017-11-04T04:21:46.394Z,6.46
2017-11-04T04:22:46.360Z,6.45
2017-11-04T04:23:46.275Z,6.55
2017-11-04T04:24:46.218Z,6.60
2017-11-04T04:25:46.173Z,6.57
2017-11-04T04:26:46.083Z,6.63
2017-11-04T04:27:46.025Z,6.68
2017-11-04T04:28:45.965Z,6.73
2017-11-04T04:29:45.893Z,6.76
2017-11-04T04:30:45.836Z,6.64
2017-11-04T04:31:45.777Z,6.73
2017-11-04T04:32:45.728Z,6.76
2017-11-04T04:33:45.662Z,6.73
2017-11-04T04:34:45.607Z,6.79
2017-11-04T04:35:45.552Z,6.78
2017-11-04T04:36:45.468Z,6.87
2017-11-04T04:37:45.399Z,6.91
2017-11-04T04:38:45.343Z,6.89
2017-11-04T04:39:45.280Z,6.90
2017-11-04T04:40:45.221Z,6.89
2017-11-04T04:41:45.162Z,6.89
2017-11-04T04:42:45.105Z,7.00
2017-11-04T04:43:45.050Z,6.97
2017-11-04T04:44:44.985Z,7.01
2017-11-04T04:45:44.954Z,6.99
2017-11-04T04:46:44.851Z,7.08
2017-11-04T04:47:44.783Z,7.00
2017-11-04T04:48:44.723Z,7.14
2017-11-04T04:49:44.663Z,7.00
2017-11-04T04:50:44.610Z,7.04
2017-11-04T04:51:44.548Z,7.14
2017-11-04T04:52:44.492Z,7.14
2017-11-04T04:53:44.439Z,7.09
2017-11-04T04:54:44.354Z,7.09
2017-11-04T04:55:44.295Z,7.09
2017-11-04T04:56:44.236Z,7.12
2017-11-04T04:57:44.169Z,7.12
2017-11-04T04:58:44.108Z,7.15
2017-11-04T04:59:44.056Z,7.19
2017-11-04T05:00:43.992Z,7.19
2017-11-04T05:01:43.934Z,7.15
2017-11-04T05:02:43.881Z,7.15
2017-11-04T05:03:43.805Z,7.24
2017-11-04T05:04:43.745Z,7.27
2017-11-04T05:05:43.674Z,7.21
2017-11-04T05:06:43.637Z,7.26
2017-11-04T05:07:43.554Z,7.30
2017-11-04T05:08:43.497Z,7.32
2017-11-04T05:09:43.436Z,7.30
2017-11-04T05:10:43.379Z,7.39
2017-11-04T05:11:43.326Z,7.33
2017-11-04T05:12:43.273Z,7.19
2017-11-04T05:13:43.190Z,7.36
2017-11-04T05:14:43.129Z,7.32
2017-11-04T05:15:43.067Z,7.21
2017-11-04T05:16:43.000Z,7.33
2017-11-04T05:17:42.940Z,7.29
2017-11-04T05:18:42.890Z,7.23
2017-11-04T05:19:42.823Z,7.21
2017-11-04T05:20:42.766Z,7.16
2017-11-04T05:21:42.711Z,7.23
2017-11-04T05:22:42.658Z,7.19
2017-11-04T05:23:42.584Z,7.29
2017-11-04T05:24:42.518Z,7.16
2017-11-04T05:25:42.447Z,7.21
2017-11-04T05:26:42.386Z,7.16
2017-11-04T05:27:42.329Z,7.23
2017-11-04T05:28:42.271Z,7.21
2017-11-04T05:29:42.211Z,7.16
2017-11-04T05:30:42.156Z,7.14
2017-11-04T05:31:42.100Z,7.00
2017-11-04T05:32:42.023Z,7.11
2017-11-04T05:33:41.960Z,7.11
2017-11-04T05:34:41.894Z,7.05
2017-11-04T05:35:41.833Z,7.12
2017-11-04T05:36:41.781Z,6.99
2017-11-04T05:37:41.735Z,6.99
2017-11-04T05:38:41.654Z,7.12
2017-11-04T05:39:41.591Z,6.97
2017-11-04T05:40:41.543Z,7.04
2017-11-04T05:41:41.461Z,7.05
2017-11-04T05:42:41.415Z,7.12
2017-11-04T05:43:41.345Z,7.08
2017-11-04T05:44:41.284Z,7.01
2017-11-04T05:45:41.227Z,6.99
2017-11-04T05:46:41.159Z,7.01
2017-11-04T05:47:41.099Z,7.00
2017-11-04T05:48:41.047Z,6.99
2017-11-04T05:49:40.979Z,7.01
2017-11-04T05:50:40.932Z,6.96
2017-11-04T05:51:40.853Z,6.94
2017-11-04T05:52:40.791Z,6.94
2017-11-04T05:53:40.723Z,6.91
2017-11-04T05:54:40.664Z,6.90
2017-11-04T05:55:40.609Z,6.87
2017-11-04T05:56:40.545Z,6.81
2017-11-04T05:57:40.485Z,6.90
2017-11-04T05:58:40.456Z,6.93
2017-11-04T05:59:40.350Z,6.94
2017-11-04T06:00:40.296Z,6.97
2017-11-04T06:01:40.239Z,6.87
2017-11-04T06:02:40.164Z,6.89
2017-11-04T06:03:40.106Z,6.89
2017-11-04T06:04:40.049Z,6.83
2017-11-04T06:05:39.987Z,6.76
2017-11-04T06:06:39.929Z,6.76
2017-11-04T06:07:39.856Z,6.72
2017-11-04T06:08:39.817Z,6.81
2017-11-04T06:09:39.740Z,6.81
2017-11-04T06:10:39.668Z,6.78
2017-11-04T06:11:39.639Z,6.72
2017-11-04T06:12:39.550Z,6.72
2017-11-04T06:13:39.497Z,6.72
2017-11-04T06:14:39.429Z,6.75
2017-11-04T06:15:39.370Z,6.68
2017-11-04T06:16:39.314Z,6.69
2017-11-04T06:17:39.260Z,6.72
2017-11-04T06:18:39.183Z,6.71
2017-11-04T06:19:39.118Z,6.76
2017-11-04T06:20:39.123Z,6.72
2017-11-04T06:21:38.990Z,6.75
2017-11-04T06:22:38.930Z,6.64
2017-11-04T06:23:38.883Z,6.76
2017-11-04T06:24:38.816Z,6.78
2017-11-04T06:25:38.757Z,6.78
2017-11-04T06:26:38.706Z,6.81
2017-11-04T06:27:38.621Z,6.81
2017-11-04T06:28:38.571Z,6.72
2017-11-04T06:29:38.502Z,6.75
2017-11-04T06:30:38.434Z,6.83
2017-11-04T06:31:38.375Z,6.83
2017-11-04T06:32:38.318Z,6.89
2017-11-04T06:33:38.257Z,6.94
2017-11-04T06:34:38.203Z,6.91
2017-11-04T06:35:38.145Z,6.97
2017-11-04T06:36:38.068Z,6.99
2017-11-04T06:37:38.006Z,7.01
2017-11-04T06:38:37.940Z,6.97
2017-11-04T06:39:37.878Z,7.01
2017-11-04T06:40:37.827Z,7.08
2017-11-04T06:41:37.758Z,7.04
2017-11-04T06:42:37.703Z,7.09
2017-11-04T06:43:37.645Z,7.18
2017-11-04T06:44:37.589Z,7.09
2017-11-04T06:45:37.512Z,7.12
2017-11-04T06:46:37.452Z,7.09
2017-11-04T06:47:37.396Z,7.12
2017-11-04T06:48:37.324Z,7.04
2017-11-04T06:49:37.262Z,7.05
2017-11-04T06:50:37.207Z,7.07
2017-11-04T06:51:37.144Z,7.09
2017-11-04T06:52:37.087Z,7.15
2017-11-04T06:53:37.034Z,7.21
2017-11-04T06:54:36.978Z,7.12
2017-11-04T06:55:36.898Z,7.23
2017-11-04T06:56:36.839Z,7.18
2017-11-04T06:57:36.771Z,7.21
2017-11-04T06:58:36.712Z,7.32
2017-11-04T06:59:36.652Z,7.30
2017-11-04T07:00:36.599Z,7.33
2017-11-04T07:01:36.539Z,7.41
2017-11-04T07:02:36.480Z,7.47
2017-11-04T07:03:36.433Z,7.50
2017-11-04T07:04:36.351Z,7.62
2017-11-04T07:05:36.286Z,7.69
2017-11-04T07:06:36.239Z,7.63
2017-11-04T07:07:36.161Z,7.73
2017-11-04T07:08:36.126Z,7.73
2017-11-04T07:09:36.041Z,7.74
2017-11-04T07:10:35.979Z,7.84
2017-11-04T07:11:35.921Z,7.81
2017-11-04T07:12:35.875Z,7.92
2017-11-04T07:13:35.808Z,7.91
2017-11-04T07:14:35.759Z,7.96
2017-11-04T07:15:35.675Z,8.00
2017-11-04T07:16:35.618Z,7.96
2017-11-04T07:17:35.555Z,7.89
2017-11-04T07:18:35.487Z,7.89
2017-11-04T07:19:35.427Z,7.86
2017-11-04T07:20:35.370Z,7.76
2017-11-04T07:21:35.315Z,7.84
2017-11-04T07:22:35.253Z,7.71
2017-11-04T07:23:35.204Z,7.63
2017-11-04T07:24:35.142Z,7.62
2017-11-04T07:25:35.088Z,7.57
2017-11-04T07:26:35.008Z,7.62
2017-11-04T07:27:34.948Z,7.58
2017-11-04T07:28:34.888Z,7.66
2017-11-04T07:29:34.820Z,7.71
2017-11-04T07:30:34.767Z,7.81
2017-11-04T07:31:34.703Z,7.96
2017-11-04T07:32:34.646Z,8.00
2017-11-04T07:33:34.588Z,8.03
2017-11-04T07:34:34.532Z,8.17
2017-11-04T07:35:34.479Z,8.09
2017-11-04T07:36:34.421Z,8.09
2017-11-04T07:37:34.343Z,8.07
2017-11-04T07:38:34.293Z,8.17
2017-11-04T07:39:34.222Z,8.18
2017-11-04T07:40:34.165Z,8.21
2017-11-04T07:41:34.096Z,8.09
2017-11-04T07:42:34.064Z,8.12
2017-11-04T07:43:33.982Z,8.14
2017-11-04T07:44:33.922Z,8.29
2017-11-04T07:45:33.865Z,8.57
2017-11-04T07:46:33.802Z,8.73
2017-11-04T07:47:33.756Z,9.37
2017-11-04T07:48:33.679Z,9.67
2017-11-04T07:49:33.621Z,9.88
2017-11-04T07:50:33.559Z,10.46
2017-11-04T07:51:33.508Z,10.88
2017-11-04T07:52:33.451Z,11.17
2017-11-04T07:53:33.386Z,11.44
2017-11-04T07:54:33.323Z,11.38
2017-11-04T07:55:33.262Z,11.66
2017-11-04T07:56:33.205Z,11.66
2017-11-04T07:57:33.148Z,11.64
2017-11-04T07:58:33.093Z,12.13
2017-11-04T07:59:33.036Z,12.46
2017-11-04T08:00:32.979Z,12.91
2017-11-04T08:01:32.929Z,13.32
2017-11-04T08:02:32.869Z,13.12
2017-11-04T08:03:32.806Z,13.80
2017-11-04T08:04:32.780Z,14.16
2017-11-04T08:05:32.704Z,14.82
2017-11-04T08:06:32.636Z,15.43
2017-11-04T08:07:32.593Z,15.41
2017-11-04T08:08:32.540Z,15.51
2017-11-04T08:09:32.485Z,15.78
2017-11-04T08:10:32.438Z,15.86
2017-11-04T08:11:32.375Z,15.95
2017-11-04T08:12:32.309Z,15.67
2017-11-04T08:13:32.266Z,16.10
2017-11-04T08:14:32.212Z,16.18
2017-11-04T08:15:32.159Z,16.42
2017-11-04T08:16:32.106Z,16.82
2017-11-04T08:17:32.045Z,17.05
2017-11-04T08:18:31.995Z,17.35
2017-11-04T08:19:31.945Z,17.54
2017-11-04T08:20:31.888Z,17.45
2017-11-04T08:21:31.836Z,16.92
2017-11-04T08:22:31.783Z,16.45
2017-11-04T08:23:31.749Z,16.42
2017-11-04T08:24:31.679Z,16.51
2017-11-04T08:25:31.622Z,16.41
2017-11-04T08:26:31.567Z,16.50
2017-11-04T08:27:31.514Z,16.44
2017-11-04T08:28:31.460Z,16.42
2017-11-04T08:29:31.407Z,16.40
2017-11-04T08:30:31.363Z,16.44
2017-11-04T08:31:31.313Z,16.48
2017-11-04T08:32:31.258Z,16.26
2017-11-04T08:33:31.207Z,16.04
2017-11-04T08:34:31.180Z,15.68
2017-11-04T08:35:31.105Z,15.89
2017-11-04T08:36:31.047Z,16.18
2017-11-04T08:37:30.994Z,16.26
2017-11-04T08:38:30.963Z,16.26
2017-11-04T08:39:30.908Z,16.42
2017-11-04T08:40:30.853Z,16.55
2017-11-04T08:41:30.784Z,16.51
2017-11-04T08:42:30.745Z,16.45
2017-11-04T08:43:30.691Z,16.45
2017-11-04T08:44:30.636Z,16.63
2017-11-04T08:45:30.580Z,17.09
2017-11-04T08:46:30.546Z,17.51
2017-11-04T08:47:30.472Z,17.77
2017-11-04T08:48:30.422Z,17.77
2017-11-04T08:49:30.365Z,17.98
2017-11-04T08:50:30.312Z,18.31
2017-11-04T08:51:30.261Z,18.60
2017-11-04T08:52:30.213Z,18.38
2017-11-04T08:53:30.154Z,18.74
2017-11-04T08:54:30.109Z,18.74
2017-11-04T08:55:30.047Z,18.39
2017-11-04T08:56:30.004Z,18.01
2017-11-04T08:57:29.957Z,17.84
2017-11-04T08:58:29.901Z,17.46
2017-11-04T08:59:29.849Z,17.74
2017-11-04T09:00:29.797Z,18.16
2017-11-04T09:01:29.747Z,18.28
2017-11-04T09:02:29.714Z,18.36
2017-11-04T09:03:29.660Z,18.10
2017-11-04T09:04:29.604Z,18.10
2017-11-04T09:05:29.549Z,18.26
2017-11-04T09:06:29.491Z,18.23
2017-11-04T09:07:29.451Z,18.07
2017-11-04T09:08:29.397Z,17.84
2017-11-04T09:09:29.340Z,17.00
2017-11-04T09:10:29.284Z,17.07
2017-11-04T09:11:29.233Z,17.43
2017-11-04T09:12:29.188Z,17.28
2017-11-04T09:13:29.126Z,17.21
2017-11-04T09:14:29.078Z,17.49
2017-11-04T09:15:29.025Z,17.47
2017-11-04T09:16:28.978Z,17.03
2017-11-04T09:17:28.928Z,16.80
2017-11-04T09:18:28.902Z,16.75
2017-11-04T09:19:28.847Z,16.59
2017-11-04T09:20:28.792Z,16.13
2017-11-04T09:21:28.737Z,16.32
2017-11-04T09:22:28.684Z,16.36
2017-11-04T09:23:28.635Z,16.01
2017-11-04T09:24:28.575Z,16.03
2017-11-04T09:25:28.519Z,16.14
2017-11-04T09:26:28.465Z,15.99
2017-11-04T09:27:28.411Z,15.73
2017-11-04T09:28:28.358Z,16.10
2017-11-04T09:29:28.304Z,16.23
2017-11-04T09:30:28.255Z,16.42
2017-11-04T09:31:28.198Z,16.22
2017-11-04T09:32:28.146Z,16.14
2017-11-04T09:33:28.095Z,15.91
2017-11-04T09:34:28.046Z,15.89
2017-11-04T09:35:27.986Z,15.48
2017-11-04T09:36:27.932Z,14.83
2017-11-04T09:37:27.907Z,14.56
2017-11-04T09:38:27.821Z,14.54
2017-11-04T09:39:27.772Z,14.42
2017-11-04T09:40:27.721Z,14.11
2017-11-04T09:41:27.661Z,13.96
2017-11-04T09:42:27.607Z,13.90
2017-11-04T09:43:27.562Z,14.08
2017-11-04T09:44:27.508Z,14.11
2017-11-04T09:45:27.476Z,14.12
2017-11-04T09:46:27.398Z,14.11
2017-11-04T09:47:27.345Z,14.09
2017-11-04T09:48:27.290Z,14.21
2017-11-04T09:49:27.235Z,14.41
2017-11-04T09:50:27.193Z,14.12
2017-11-04T09:51:27.166Z,14.06
2017-11-04T09:52:27.074Z,13.91
2017-11-04T09:53:27.016Z,13.96
2017-11-04T09:54:26.977Z,13.76
2017-11-04T09:55:26.907Z,13.79
2017-11-04T09:56:26.856Z,13.55
2017-11-04T09:57:26.796Z,13.63
2017-11-04T09:58:26.744Z,13.87
2017-11-04T09:59:26.689Z,13.86
2017-11-04T10:00:26.634Z,13.81
2017-11-04T10:01:26.572Z,13.53
2017-11-04T10:02:26.524Z,13.43
2017-11-04T10:03:26.467Z,13.43
2017-11-04T10:04:26.417Z,13.43
2017-11-04T10:05:26.357Z,13.48
2017-11-04T10:06:26.299Z,13.09
2017-11-04T10:07:26.237Z,12.79
2017-11-04T10:08:26.185Z,12.71
2017-11-04T10:09:26.130Z,12.66
2017-11-04T10:10:26.071Z,12.80
2017-11-04T10:11:26.030Z,12.84
2017-11-04T10:12:25.977Z,12.81
2017-11-04T10:13:25.921Z,12.81
2017-11-04T10:14:25.851Z,12.94
2017-11-04T10:15:25.815Z,12.92
2017-11-04T10:16:25.739Z,13.03
2017-11-04T10:17:25.692Z,12.99
2017-11-04T10:18:25.628Z,13.04
2017-11-04T10:19:25.575Z,12.87
2017-11-04T10:20:25.517Z,13.04
2017-11-04T10:21:25.468Z,13.03
2017-11-04T10:22:25.406Z,13.01
2017-11-04T10:23:25.347Z,12.95
2017-11-04T10:24:25.293Z,12.94
2017-11-04T10:25:25.238Z,12.79
2017-11-04T10:26:25.182Z,12.85
2017-11-04T10:27:25.128Z,12.95
2017-11-04T10:28:25.072Z,12.89
2017-11-04T10:29:25.017Z,12.92
2017-11-04T10:30:24.963Z,12.70
2017-11-04T10:31:24.908Z,12.59
2017-11-04T10:32:24.853Z,12.62
2017-11-04T10:33:24.799Z,12.44
2017-11-04T10:34:24.744Z,12.46
2017-11-04T10:35:24.689Z,12.44
2017-11-04T10:36:24.616Z,12.56
2017-11-04T10:37:24.557Z,12.51
2017-11-04T10:38:24.499Z,12.54
2017-11-04T10:39:24.450Z,12.63
2017-11-04T10:40:24.387Z,12.67
2017-11-04T10:41:24.334Z,12.71
2017-11-04T10:42:24.277Z,12.79
2017-11-04T10:43:24.248Z,12.89
2017-11-04T10:44:24.197Z,12.80
2017-11-04T10:45:24.095Z,12.74
2017-11-04T10:46:24.040Z,12.74
2017-11-04T10:47:24.011Z,12.79
2017-11-04T10:48:23.944Z,12.76
2017-11-04T10:49:23.872Z,12.84
2017-11-04T10:50:23.817Z,12.79
2017-11-04T10:51:23.760Z,12.70
2017-11-04T10:52:23.705Z,12.62
2017-11-04T10:53:23.648Z,12.33
2017-11-04T10:54:23.590Z,12.38
2017-11-04T10:55:23.537Z,12.40
2017-11-04T10:56:23.482Z,12.46
2017-11-04T10:57:23.425Z,12.55
2017-11-04T10:58:23.375Z,12.61
2017-11-04T10:59:23.315Z,12.51
2017-11-04T11:00:23.248Z,12.33
2017-11-04T11:01:23.202Z,12.19
2017-11-04T11:02:23.135Z,12.08
2017-11-04T11:03:23.093Z,12.01
2017-11-04T11:04:23.041Z,12.07
2017-11-04T11:05:22.985Z,12.07
2017-11-04T11:06:22.908Z,12.11
2017-11-04T11:07:22.852Z,12.11
2017-11-04T11:08:22.796Z,12.03
2017-11-04T11:09:22.737Z,12.11
2017-11-04T11:10:22.678Z,12.12
2017-11-04T11:11:22.624Z,12.13
2017-11-04T11:12:22.574Z,12.25
2017-11-04T11:13:22.510Z,12.25
2017-11-04T11:14:22.447Z,12.25
2017-11-04T11:15:22.439Z,12.36
2017-11-04T11:16:22.332Z,12.41
2017-11-04T11:17:22.274Z,12.40
2017-11-04T11:18:22.233Z,12.30
2017-11-04T11:19:22.166Z,12.36
2017-11-04T11:20:22.108Z,12.31
2017-11-04T11:21:22.050Z,12.26
2017-11-04T11:22:21.999Z,12.29
2017-11-04T11:23:21.941Z,12.26
2017-11-04T11:24:21.885Z,12.19
2017-11-04T11:25:21.827Z,12.23
2017-11-04T11:26:21.770Z,12.13
2017-11-04T11:27:21.716Z,12.23
2017-11-04T11:28:21.662Z,12.21
2017-11-04T11:29:21.607Z,12.36
2017-11-04T11:30:21.551Z,12.34
2017-11-04T11:31:21.479Z,12.23
2017-11-04T11:32:21.425Z,12.33
2017-11-04T11:33:21.366Z,12.29
2017-11-04T11:34:21.313Z,12.31
2017-11-04T11:35:21.245Z,12.21
2017-11-04T11:36:21.195Z,12.23
2017-11-04T11:37:21.135Z,12.19
2017-11-04T11:38:21.085Z,12.19
2017-11-04T11:39:21.018Z,12.31
2017-11-04T11:40:20.963Z,12.31
2017-11-04T11:41:20.903Z,12.30
2017-11-04T11:42:20.843Z,12.41
2017-11-04T11:43:20.793Z,12.30
2017-11-04T11:44:20.733Z,12.34
2017-11-04T11:45:20.676Z,12.40
2017-11-04T11:46:20.621Z,12.21
2017-11-04T11:47:20.565Z,12.18
2017-11-04T11:48:20.506Z,12.12
2017-11-04T11:49:20.450Z,12.13
2017-11-04T11:50:20.394Z,12.12
2017-11-04T11:51:20.340Z,12.05
2017-11-04T11:52:20.288Z,12.13
2017-11-04T11:53:20.231Z,12.07
2017-11-04T11:54:20.175Z,12.15
2017-11-04T11:55:20.110Z,12.23
2017-11-04T11:56:20.046Z,12.23
2017-11-04T11:57:19.987Z,12.13
2017-11-04T11:58:19.930Z,12.16
2017-11-04T11:59:19.873Z,12.15
2017-11-04T12:00:19.816Z,12.12
2017-11-04T12:01:19.756Z,12.13
2017-11-04T12:02:19.693Z,12.13
2017-11-04T12:03:19.641Z,12.15
2017-11-04T12:04:19.595Z,12.29
2017-11-04T12:05:19.551Z,12.34
2017-11-04T12:06:19.465Z,12.31
2017-11-04T12:07:19.412Z,12.31
2017-11-04T12:08:19.353Z,12.18
2017-11-04T12:09:19.296Z,12.19
2017-11-04T12:10:19.246Z,12.11
2017-11-04T12:11:19.184Z,12.00
2017-11-04T12:12:19.129Z,12.04
2017-11-04T12:13:19.075Z,12.15
2017-11-04T12:14:19.032Z,12.18
2017-11-04T12:15:18.975Z,12.23
2017-11-04T12:16:18.909Z,12.13
2017-11-04T12:17:18.855Z,12.16
2017-11-04T12:18:18.778Z,12.25
2017-11-04T12:19:18.729Z,12.23
2017-11-04T12:20:18.665Z,12.25
2017-11-04T12:21:18.605Z,12.19
2017-11-04T12:22:18.546Z,12.37
2017-11-04T12:23:18.495Z,12.31
2017-11-04T12:24:18.458Z,12.43
2017-11-04T12:25:18.396Z,12.30
2017-11-04T12:26:18.314Z,12.23
2017-11-04T12:27:18.376Z,12.19
2017-11-04T12:28:18.206Z,12.30
2017-11-04T12:29:18.150Z,12.33
2017-11-04T12:30:18.084Z,12.34
2017-11-04T12:31:18.029Z,12.49
2017-11-04T12:32:17.972Z,12.40
2017-11-04T12:33:17.924Z,12.51
2017-11-04T12:34:17.862Z,12.55
2017-11-04T12:35:17.820Z,12.55
2017-11-04T12:36:17.751Z,12.63
2017-11-04T12:37:17.697Z,12.59
2017-11-04T12:38:17.623Z,12.59
2017-11-04T12:39:17.570Z,12.66
2017-11-04T12:40:17.518Z,12.59
2017-11-04T12:41:17.456Z,12.54
2017-11-04T12:42:17.395Z,12.52
2017-11-04T12:43:17.351Z,12.54
2017-11-04T12:44:17.317Z,12.54
2017-11-04T12:45:17.230Z,12.58
2017-11-04T12:46:17.158Z,12.58
2017-11-04T12:47:17.102Z,12.44
2017-11-04T12:48:17.046Z,12.40
2017-11-04T12:49:16.992Z,12.33
2017-11-04T12:50:16.933Z,12.40
2017-11-04T12:51:16.876Z,12.51
2017-11-04T12:52:16.820Z,12.48
2017-11-04T12:53:16.761Z,12.49
2017-11-04T12:54:16.706Z,12.51
2017-11-04T12:55:16.652Z,12.48
2017-11-04T12:56:16.604Z,12.40
2017-11-04T12:57:16.541Z,12.44
2017-11-04T12:58:16.486Z,12.54
2017-11-04T12:59:16.436Z,12.43
2017-11-04T13:00:16.378Z,12.48
2017-11-04T13:01:16.300Z,12.34
2017-11-04T13:02:16.245Z,12.23
2017-11-04T13:03:16.182Z,12.40
2017-11-04T13:04:16.134Z,12.38
2017-11-04T13:05:16.062Z,12.55
2017-11-04T13:06:16.007Z,12.54